Alief, Texas
Current Conditions -  °F | °C
As of 9:17 PM on Saturday 20 Dec 2014 (Local Time) from KSGR Reporting Station
Broken Clouds Broken Clouds  
Wind Chill: 10°   Ceiling: 2100
Heat Index: 10°   Visibility: 10mi
Dew Point:   Wind: 0mph
Humidity: 89%   Direction: NA
Pressure: 30.18"   Gusts: NA
Location:  29.71°N, 95.6°W
Report Text: KSGR 210317Z 00000KT 10SM BKN021 10/08 A3018 RMK AO2 T01000083
Loading
Personal Weather Stations






























Interactive Weather Map New forecast layout! Learn more

10-Day Weather Forecast

Advertisements
Track Severe Weather on mobile